createdAt,value
2022-10-15T00:03:35.950Z,9.40
2022-10-15T00:08:39.267Z,9.30
2022-10-15T00:13:42.060Z,9.20
2022-10-15T00:18:44.176Z,9.20
2022-10-15T00:23:46.907Z,9.20
2022-10-15T00:28:53.583Z,9.20
2022-10-15T00:33:58.438Z,9.20
2022-10-15T00:39:00.420Z,9.10
2022-10-15T00:44:23.594Z,9.10
2022-10-15T00:49:33.910Z,9.10
2022-10-15T00:54:43.426Z,9.00
2022-10-15T00:59:49.668Z,8.90
2022-10-15T01:04:51.900Z,8.90
2022-10-15T01:09:53.739Z,8.80
2022-10-15T01:15:13.510Z,8.80
2022-10-15T01:20:15.326Z,8.80
2022-10-15T01:25:45.432Z,8.80
2022-10-15T01:30:50.292Z,8.80
2022-10-15T01:36:04.119Z,8.80
2022-10-15T01:41:39.672Z,8.90
2022-10-15T01:46:43.803Z,8.90
2022-10-15T01:51:45.858Z,8.90
2022-10-15T01:56:52.331Z,8.90
2022-10-15T02:01:57.485Z,9.00
2022-10-15T02:07:02.990Z,9.00
2022-10-15T02:12:42.262Z,9.10
2022-10-15T02:17:46.545Z,9.10
2022-10-15T02:22:51.760Z,9.20
2022-10-15T02:27:55.383Z,9.20
2022-10-15T02:32:59.697Z,9.30
2022-10-15T02:38:04.607Z,9.40
2022-10-15T02:43:09.597Z,9.50
2022-10-15T02:48:11.413Z,9.50
2022-10-15T02:53:13.303Z,9.50
2022-10-15T02:58:15.176Z,9.60
2022-10-15T03:03:17.172Z,9.50
2022-10-15T03:08:19.065Z,9.50
2022-10-15T03:13:20.885Z,9.50
2022-10-15T03:18:23.162Z,9.50
2022-10-15T03:23:25.204Z,9.60
2022-10-15T03:28:27.292Z,9.60
2022-10-15T03:33:29.299Z,9.60
2022-10-15T03:38:31.189Z,9.70
2022-10-15T03:43:33.933Z,9.70
2022-10-15T03:48:37.950Z,9.70
2022-10-15T03:53:39.768Z,9.70
2022-10-15T03:58:41.853Z,9.80
2022-10-15T04:03:43.897Z,9.90
2022-10-15T04:08:45.821Z,9.90
2022-10-15T04:13:50.828Z,9.90
2022-10-15T04:18:52.632Z,10.00
2022-10-15T04:23:54.677Z,10.00
2022-10-15T04:28:56.679Z,10.10
2022-10-15T04:33:58.603Z,10.10
2022-10-15T04:39:00.915Z,10.10
2022-10-15T04:44:02.975Z,10.10
2022-10-15T04:49:04.786Z,10.10
2022-10-15T04:54:06.680Z,10.20
2022-10-15T04:59:08.875Z,10.20
2022-10-15T05:04:12.565Z,10.20
2022-10-15T05:09:14.643Z,10.30
2022-10-15T05:14:16.474Z,10.40
2022-10-15T05:19:18.345Z,10.60
2022-10-15T05:24:20.156Z,10.70
2022-10-15T05:29:22.013Z,10.80
2022-10-15T05:34:24.752Z,10.90
2022-10-15T05:39:26.599Z,10.90
2022-10-15T05:44:28.416Z,11.00
2022-10-15T05:49:30.920Z,11.10
2022-10-15T05:54:32.715Z,11.20
2022-10-15T05:59:34.529Z,11.20
2022-10-15T06:04:36.347Z,11.30
2022-10-15T06:09:38.192Z,11.40
2022-10-15T06:14:40.143Z,11.40
2022-10-15T06:19:41.976Z,11.50
2022-10-15T06:24:43.783Z,11.50
2022-10-15T06:29:45.656Z,11.60
2022-10-15T06:34:47.636Z,11.70
2022-10-15T06:39:49.513Z,11.70
2022-10-15T06:44:51.456Z,11.80
2022-10-15T06:49:53.301Z,11.90
2022-10-15T06:54:55.223Z,11.90
2022-10-15T06:59:57.128Z,12.10
2022-10-15T07:04:58.935Z,12.20
2022-10-15T07:10:00.971Z,12.30
2022-10-15T07:15:02.847Z,12.40
2022-10-15T07:20:07.567Z,12.40
2022-10-15T07:25:10.212Z,12.50
2022-10-15T07:30:12.589Z,12.50
2022-10-15T07:35:15.021Z,12.60
2022-10-15T07:40:20.224Z,12.70
2022-10-15T07:45:22.259Z,12.80
2022-10-15T07:50:24.191Z,12.80
2022-10-15T07:55:26.274Z,13.00
2022-10-15T08:00:29.230Z,13.00
2022-10-15T08:05:31.105Z,13.10
2022-10-15T08:10:34.866Z,13.10
2022-10-15T08:15:42.088Z,13.10
2022-10-15T08:20:49.829Z,13.20
2022-10-15T08:25:52.323Z,13.40
2022-10-15T08:30:55.631Z,13.50
2022-10-15T08:35:58.844Z,13.60
2022-10-15T08:41:02.072Z,13.80
2022-10-15T08:46:09.938Z,13.90
2022-10-15T08:51:19.204Z,14.10
2022-10-15T08:56:40.469Z,14.20
2022-10-15T09:01:58.740Z,14.30
2022-10-15T09:07:14.457Z,14.40
2022-10-15T09:12:36.377Z,14.50
2022-10-15T09:17:38.465Z,14.50
2022-10-15T09:22:40.469Z,14.50
2022-10-15T09:28:44.981Z,14.50
2022-10-15T09:34:23.295Z,14.50
2022-10-15T09:40:36.864Z,14.40
2022-10-15T09:51:57.131Z,14.50
2022-10-15T09:56:58.985Z,14.50
2022-10-15T10:02:00.840Z,14.60
2022-10-15T10:07:08.034Z,14.70
2022-10-15T10:12:20.288Z,14.80
2022-10-15T10:17:27.168Z,14.80
2022-10-15T10:22:28.971Z,14.80
2022-10-15T10:27:30.839Z,14.90
2022-10-15T10:32:34.455Z,14.90
2022-10-15T10:37:42.950Z,14.90
2022-10-15T10:42:45.116Z,14.90
2022-10-15T10:47:47.497Z,14.90
2022-10-15T10:52:49.359Z,14.90
2022-10-15T10:58:34.652Z,14.90
2022-10-15T11:04:22.343Z,14.90
2022-10-15T11:10:21.601Z,14.90
2022-10-15T11:15:56.518Z,14.90
2022-10-15T11:21:39.833Z,14.70
2022-10-15T11:26:52.561Z,14.70
2022-10-15T11:32:16.555Z,14.60
2022-10-15T11:37:59.595Z,14.60
2022-10-15T11:43:30.071Z,14.60
2022-10-15T11:48:55.939Z,14.60
2022-10-15T11:54:22.120Z,14.60
2022-10-15T11:59:36.376Z,14.60
2022-10-15T12:04:52.405Z,14.50
2022-10-15T12:09:57.363Z,14.50
2022-10-15T12:15:24.043Z,14.40
2022-10-15T12:20:27.532Z,14.40
2022-10-15T12:25:35.629Z,14.40
2022-10-15T12:30:37.826Z,14.40
2022-10-15T12:35:39.975Z,14.50
2022-10-15T12:40:41.849Z,14.40
2022-10-15T12:45:55.408Z,14.20
2022-10-15T12:51:22.071Z,14.20
2022-10-15T12:56:25.735Z,14.10
2022-10-15T13:01:51.527Z,14.10
2022-10-15T13:06:53.588Z,14.00
2022-10-15T13:11:57.369Z,14.00
2022-10-15T13:17:01.606Z,14.00
2022-10-15T13:22:05.588Z,13.90
2022-10-15T13:27:21.920Z,13.90
2022-10-15T13:32:25.546Z,13.90
2022-10-15T13:37:34.195Z,13.90
2022-10-15T13:42:36.753Z,13.80
2022-10-15T13:47:42.174Z,13.80
2022-10-15T13:52:57.097Z,13.90
2022-10-15T13:58:05.283Z,13.90
2022-10-15T14:03:17.754Z,13.90
2022-10-15T14:08:25.516Z,13.90
2022-10-15T14:13:28.265Z,13.90
2022-10-15T14:18:33.842Z,13.90
2022-10-15T14:23:42.982Z,13.80
2022-10-15T14:28:51.408Z,13.80
2022-10-15T14:33:53.412Z,13.80
2022-10-15T14:38:55.736Z,13.80
2022-10-15T14:44:17.886Z,13.80
2022-10-15T14:49:32.449Z,13.80
2022-10-15T14:54:40.241Z,13.80
2022-10-15T14:59:46.893Z,13.80
2022-10-15T15:05:06.840Z,13.80
2022-10-15T15:10:09.305Z,13.80
2022-10-15T15:15:16.109Z,13.80
2022-10-15T15:20:20.388Z,13.80
2022-10-15T15:25:36.990Z,13.80
2022-10-15T15:30:40.556Z,13.80
2022-10-15T15:35:50.796Z,13.80
2022-10-15T15:41:49.111Z,13.70
2022-10-15T15:47:10.398Z,13.80
2022-10-15T15:52:29.585Z,13.70
2022-10-15T15:57:33.746Z,13.80
2022-10-15T16:02:38.997Z,13.80
2022-10-15T16:07:44.904Z,13.80
2022-10-15T16:12:50.278Z,13.80
2022-10-15T16:17:52.129Z,13.80
2022-10-15T16:22:54.347Z,13.80
2022-10-15T16:27:57.214Z,13.70
2022-10-15T16:32:59.093Z,13.70
2022-10-15T16:38:01.042Z,13.70
2022-10-15T16:43:02.939Z,13.70
2022-10-15T16:48:05.186Z,13.60
2022-10-15T16:53:07.013Z,13.60
2022-10-15T16:58:08.871Z,13.50
2022-10-15T17:03:10.739Z,13.50
2022-10-15T17:08:14.542Z,13.50
2022-10-15T17:13:16.810Z,13.50
2022-10-15T17:18:40.318Z,13.40
2022-10-15T17:23:45.969Z,13.40
2022-10-15T17:28:50.278Z,13.40
2022-10-15T17:34:03.921Z,13.40
2022-10-15T17:39:05.791Z,13.40
2022-10-15T17:44:07.655Z,13.40
2022-10-15T17:49:11.023Z,13.30
2022-10-15T17:54:12.986Z,13.40
2022-10-15T17:59:14.976Z,13.30
2022-10-15T18:04:17.024Z,13.30
2022-10-15T18:09:18.871Z,13.40
2022-10-15T18:19:28.365Z,13.40
2022-10-15T18:24:30.231Z,13.40
2022-10-15T18:29:32.087Z,13.30
2022-10-15T18:34:34.779Z,13.40
2022-10-15T18:39:36.692Z,13.40
2022-10-15T18:44:38.531Z,13.40
2022-10-15T18:49:40.407Z,13.30
2022-10-15T18:54:42.316Z,13.30
2022-10-15T18:59:44.303Z,13.40
2022-10-15T19:04:48.302Z,13.40
2022-10-15T19:09:54.883Z,13.30
2022-10-15T19:14:56.695Z,13.40
2022-10-15T19:19:59.534Z,13.30
2022-10-15T19:25:01.471Z,13.30
2022-10-15T19:30:03.870Z,13.30
2022-10-15T19:35:06.607Z,13.30
2022-10-15T19:40:09.216Z,13.30
2022-10-15T19:45:11.281Z,13.30
2022-10-15T19:50:13.190Z,13.30
2022-10-15T19:55:15.326Z,13.20
2022-10-15T20:00:17.407Z,13.20
2022-10-15T20:05:19.455Z,13.10
2022-10-15T20:10:24.943Z,13.10
2022-10-15T20:15:27.912Z,13.00
2022-10-15T20:20:29.804Z,12.90
2022-10-15T20:25:31.916Z,12.90
2022-10-15T20:30:33.751Z,12.80
2022-10-15T20:35:36.565Z,12.70
2022-10-15T20:40:39.926Z,12.60
2022-10-15T20:45:44.715Z,12.60
2022-10-15T20:50:47.361Z,12.40
2022-10-15T20:55:49.956Z,12.40
2022-10-15T21:00:51.868Z,12.30
2022-10-15T21:05:54.144Z,12.30
2022-10-15T21:11:05.909Z,12.20
2022-10-15T21:16:08.501Z,12.20
2022-10-15T21:21:12.998Z,12.10
2022-10-15T21:26:17.499Z,12.00
2022-10-15T21:31:19.348Z,11.90
2022-10-15T21:36:30.217Z,11.80
2022-10-15T21:41:34.480Z,11.80
2022-10-15T21:46:36.415Z,11.70
2022-10-15T21:51:38.543Z,11.70
2022-10-15T21:56:40.504Z,11.60
2022-10-15T22:01:42.715Z,11.50
2022-10-15T22:06:44.658Z,11.50
2022-10-15T22:11:46.550Z,11.50
2022-10-15T22:16:51.591Z,11.50
2022-10-15T22:21:53.480Z,11.50
2022-10-15T22:26:55.598Z,11.50
2022-10-15T22:31:58.144Z,11.40
2022-10-15T22:37:00.103Z,11.40
2022-10-15T22:42:02.022Z,11.30
2022-10-15T22:47:03.850Z,11.30
2022-10-15T22:52:05.729Z,11.20
2022-10-15T22:57:07.590Z,11.20
2022-10-15T23:02:09.686Z,11.10
2022-10-15T23:07:11.565Z,11.10
2022-10-15T23:12:13.374Z,11.10
2022-10-15T23:17:15.238Z,11.00
2022-10-15T23:22:18.062Z,11.00
2022-10-15T23:27:19.899Z,11.00
2022-10-15T23:32:21.781Z,10.90
2022-10-15T23:37:26.425Z,10.80
2022-10-15T23:42:28.538Z,10.80
2022-10-15T23:47:31.152Z,10.70
2022-10-15T23:52:39.249Z,10.70
2022-10-15T23:57:41.058Z,10.60
